sensor_id;sensor_type;location;lat;lon;timestamp;pressure;altitude;pressure_sealevel;temperature;humidity
32237;BME280;18726;44.732;10.550;2024-03-06T00:00:30;100622.97;;;13.57;100.00
32237;BME280;18726;44.732;10.550;2024-03-06T00:03:36;100634.34;;;13.62;100.00
32237;BME280;18726;44.732;10.550;2024-03-06T00:06:40;100634.91;;;13.75;100.00
32237;BME280;18726;44.732;10.550;2024-03-06T00:09:44;100648.47;;;12.76;100.00
32237;BME280;18726;44.732;10.550;2024-03-06T00:12:48;100659.41;;;11.99;100.00
32237;BME280;18726;44.732;10.550;2024-03-06T00:15:52;100657.13;;;12.01;100.00
32237;BME280;18726;44.732;10.550;2024-03-06T00:18:56;100652.81;;;12.58;100.00
32237;BME280;18726;44.732;10.550;2024-03-06T00:22:00;100640.16;;;12.89;100.00
32237;BME280;18726;44.732;10.550;2024-03-06T00:25:05;100644.22;;;12.98;100.00
32237;BME280;18726;44.732;10.550;2024-03-06T00:28:09;100648.38;;;13.15;100.00
32237;BME280;18726;44.732;10.550;2024-03-06T00:31:14;100650.16;;;13.76;100.00
32237;BME280;18726;44.732;10.550;2024-03-06T00:34:18;100668.59;;;13.86;100.00
32237;BME280;18726;44.732;10.550;2024-03-06T00:37:22;100655.16;;;14.30;100.00
32237;BME280;18726;44.732;10.550;2024-03-06T00:40:25;100648.00;;;14.52;100.00
32237;BME280;18726;44.732;10.550;2024-03-06T00:43:29;100663.78;;;13.49;95.53
32237;BME280;18726;44.732;10.550;2024-03-06T00:46:33;100668.25;;;11.77;100.00
32237;BME280;18726;44.732;10.550;2024-03-06T00:49:37;100668.94;;;11.58;100.00
32237;BME280;18726;44.732;10.550;2024-03-06T00:52:43;100658.13;;;12.51;100.00
32237;BME280;18726;44.732;10.550;2024-03-06T00:55:46;100666.31;;;13.62;100.00
32237;BME280;18726;44.732;10.550;2024-03-06T00:58:50;100646.84;;;14.23;100.00
32237;BME280;18726;44.732;10.550;2024-03-06T01:01:53;100653.06;;;14.20;100.00
32237;BME280;18726;44.732;10.550;2024-03-06T01:05:01;100643.00;;;13.68;100.00
32237;BME280;18726;44.732;10.550;2024-03-06T01:08:05;100656.84;;;12.26;100.00
32237;BME280;18726;44.732;10.550;2024-03-06T01:11:08;100662.63;;;11.38;100.00
32237;BME280;18726;44.732;10.550;2024-03-06T01:14:13;100650.75;;;11.62;100.00
32237;BME280;18726;44.732;10.550;2024-03-06T01:17:17;100638.56;;;12.07;100.00
32237;BME280;18726;44.732;10.550;2024-03-06T01:20:21;100654.44;;;11.70;100.00
32237;BME280;18726;44.732;10.550;2024-03-06T01:23:24;100655.22;;;11.86;100.00
32237;BME280;18726;44.732;10.550;2024-03-06T01:26:27;100648.59;;;12.03;100.00
32237;BME280;18726;44.732;10.550;2024-03-06T01:29:32;100646.47;;;12.12;100.00
32237;BME280;18726;44.732;10.550;2024-03-06T01:32:35;100651.13;;;12.31;100.00
32237;BME280;18726;44.732;10.550;2024-03-06T01:35:39;100650.66;;;12.48;100.00
32237;BME280;18726;44.732;10.550;2024-03-06T01:38:43;100645.94;;;12.64;100.00
32237;BME280;18726;44.732;10.550;2024-03-06T01:41:50;100641.72;;;12.90;100.00
32237;BME280;18726;44.732;10.550;2024-03-06T01:44:54;100633.78;;;13.04;100.00
32237;BME280;18726;44.732;10.550;2024-03-06T01:47:57;100636.59;;;12.65;100.00
32237;BME280;18726;44.732;10.550;2024-03-06T01:51:02;100668.31;;;12.54;100.00
32237;BME280;18726;44.732;10.550;2024-03-06T01:54:08;100671.53;;;12.60;100.00
32237;BME280;18726;44.732;10.550;2024-03-06T01:57:13;100672.59;;;12.55;100.00
32237;BME280;18726;44.732;10.550;2024-03-06T02:00:18;100686.81;;;12.45;100.00
32237;BME280;18726;44.732;10.550;2024-03-06T02:03:24;100679.69;;;12.79;100.00
32237;BME280;18726;44.732;10.550;2024-03-06T02:06:29;100684.47;;;12.85;100.00
32237;BME280;18726;44.732;10.550;2024-03-06T02:09:33;100674.25;;;13.21;100.00
32237;BME280;18726;44.732;10.550;2024-03-06T02:12:37;100661.91;;;13.80;100.00
32237;BME280;18726;44.732;10.550;2024-03-06T02:15:41;100664.22;;;13.51;100.00
32237;BME280;18726;44.732;10.550;2024-03-06T02:18:56;100664.13;;;12.79;100.00
32237;BME280;18726;44.732;10.550;2024-03-06T02:22:03;100660.38;;;12.88;100.00
32237;BME280;18726;44.732;10.550;2024-03-06T02:25:07;100656.94;;;13.13;100.00
32237;BME280;18726;44.732;10.550;2024-03-06T02:28:11;100661.63;;;13.62;100.00
32237;BME280;18726;44.732;10.550;2024-03-06T02:31:15;100658.28;;;13.46;100.00
32237;BME280;18726;44.732;10.550;2024-03-06T02:34:19;100659.59;;;13.82;100.00
32237;BME280;18726;44.732;10.550;2024-03-06T02:37:23;100664.41;;;13.92;100.00
32237;BME280;18726;44.732;10.550;2024-03-06T02:40:28;100672.09;;;13.34;100.00
32237;BME280;18726;44.732;10.550;2024-03-06T02:43:33;100673.44;;;12.78;100.00
32237;BME280;18726;44.732;10.550;2024-03-06T02:46:36;100652.09;;;12.61;100.00
32237;BME280;18726;44.732;10.550;2024-03-06T02:49:40;100659.19;;;12.66;100.00
32237;BME280;18726;44.732;10.550;2024-03-06T02:52:44;100660.59;;;12.37;100.00
32237;BME280;18726;44.732;10.550;2024-03-06T02:55:48;100664.72;;;12.31;100.00
32237;BME280;18726;44.732;10.550;2024-03-06T02:58:52;100661.22;;;12.92;100.00
32237;BME280;18726;44.732;10.550;2024-03-06T03:01:55;100677.94;;;13.59;100.00
32237;BME280;18726;44.732;10.550;2024-03-06T03:04:59;100670.50;;;14.08;100.00
32237;BME280;18726;44.732;10.550;2024-03-06T03:08:02;100676.38;;;14.74;100.00
32237;BME280;18726;44.732;10.550;2024-03-06T03:11:07;100671.25;;;15.09;100.00
32237;BME280;18726;44.732;10.550;2024-03-06T03:14:11;100690.44;;;14.72;100.00
32237;BME280;18726;44.732;10.550;2024-03-06T03:17:18;100682.56;;;14.07;100.00
32237;BME280;18726;44.732;10.550;2024-03-06T03:20:22;100680.22;;;14.36;100.00
32237;BME280;18726;44.732;10.550;2024-03-06T03:23:26;100689.91;;;14.97;100.00
32237;BME280;18726;44.732;10.550;2024-03-06T03:26:30;100692.31;;;15.05;100.00
32237;BME280;18726;44.732;10.550;2024-03-06T03:29:34;100707.63;;;14.13;100.00
32237;BME280;18726;44.732;10.550;2024-03-06T03:32:38;100709.25;;;13.91;100.00
32237;BME280;18726;44.732;10.550;2024-03-06T03:35:42;100698.78;;;14.53;100.00
32237;BME280;18726;44.732;10.550;2024-03-06T03:38:46;100684.13;;;14.68;100.00
32237;BME280;18726;44.732;10.550;2024-03-06T03:41:50;100685.78;;;14.16;100.00
32237;BME280;18726;44.732;10.550;2024-03-06T03:44:53;100691.41;;;13.02;100.00
32237;BME280;18726;44.732;10.550;2024-03-06T03:47:56;100693.47;;;13.09;100.00
32237;BME280;18726;44.732;10.550;2024-03-06T03:51:00;100691.03;;;13.23;100.00
32237;BME280;18726;44.732;10.550;2024-03-06T03:54:04;100693.03;;;13.26;100.00
32237;BME280;18726;44.732;10.550;2024-03-06T03:57:08;100697.47;;;13.61;100.00
32237;BME280;18726;44.732;10.550;2024-03-06T04:00:13;100710.13;;;13.23;99.16
32237;BME280;18726;44.732;10.550;2024-03-06T04:03:17;100713.97;;;13.68;100.00
32237;BME280;18726;44.732;10.550;2024-03-06T04:06:21;100710.00;;;13.16;100.00
32237;BME280;18726;44.732;10.550;2024-03-06T04:09:25;100717.06;;;12.78;100.00
32237;BME280;18726;44.732;10.550;2024-03-06T04:12:28;100721.78;;;12.81;100.00
32237;BME280;18726;44.732;10.550;2024-03-06T04:15:31;100714.09;;;12.87;100.00
32237;BME280;18726;44.732;10.550;2024-03-06T04:18:35;100711.34;;;12.64;100.00
32237;BME280;18726;44.732;10.550;2024-03-06T04:21:43;100713.84;;;11.99;100.00
32237;BME280;18726;44.732;10.550;2024-03-06T04:24:47;100710.03;;;12.39;100.00
32237;BME280;18726;44.732;10.550;2024-03-06T04:27:50;100705.16;;;13.51;100.00
32237;BME280;18726;44.732;10.550;2024-03-06T04:30:54;100716.94;;;14.08;100.00
32237;BME280;18726;44.732;10.550;2024-03-06T04:33:58;100706.88;;;13.63;100.00
32237;BME280;18726;44.732;10.550;2024-03-06T04:37:02;100714.78;;;13.23;100.00
32237;BME280;18726;44.732;10.550;2024-03-06T04:40:06;100719.41;;;12.80;100.00
32237;BME280;18726;44.732;10.550;2024-03-06T04:43:11;100740.19;;;11.95;100.00
32237;BME280;18726;44.732;10.550;2024-03-06T04:46:15;100744.50;;;11.49;100.00
32237;BME280;18726;44.732;10.550;2024-03-06T04:49:18;100751.34;;;11.59;100.00
32237;BME280;18726;44.732;10.550;2024-03-06T04:52:22;100744.69;;;11.72;100.00
32237;BME280;18726;44.732;10.550;2024-03-06T04:55:25;100743.75;;;11.80;100.00
32237;BME280;18726;44.732;10.550;2024-03-06T04:58:30;100744.69;;;11.88;100.00
32237;BME280;18726;44.732;10.550;2024-03-06T05:01:33;100742.66;;;12.00;100.00
32237;BME280;18726;44.732;10.550;2024-03-06T05:04:37;100730.19;;;11.99;100.00
32237;BME280;18726;44.732;10.550;2024-03-06T05:07:40;100736.09;;;12.21;100.00
32237;BME280;18726;44.732;10.550;2024-03-06T05:10:45;100738.88;;;12.05;100.00
32237;BME280;18726;44.732;10.550;2024-03-06T05:13:48;100751.78;;;11.92;100.00
32237;BME280;18726;44.732;10.550;2024-03-06T05:16:53;100750.38;;;11.98;100.00
32237;BME280;18726;44.732;10.550;2024-03-06T05:19:57;100748.00;;;12.12;100.00
32237;BME280;18726;44.732;10.550;2024-03-06T05:23:00;100745.97;;;12.09;100.00
32237;BME280;18726;44.732;10.550;2024-03-06T05:26:04;100749.69;;;12.75;100.00
32237;BME280;18726;44.732;10.550;2024-03-06T05:29:08;100743.19;;;12.60;100.00
32237;BME280;18726;44.732;10.550;2024-03-06T05:32:12;100743.53;;;12.04;100.00
32237;BME280;18726;44.732;10.550;2024-03-06T05:35:16;100752.44;;;12.21;100.00
32237;BME280;18726;44.732;10.550;2024-03-06T05:38:20;100768.25;;;12.50;100.00
32237;BME280;18726;44.732;10.550;2024-03-06T05:41:25;100774.56;;;13.12;100.00
32237;BME280;18726;44.732;10.550;2024-03-06T05:44:33;100780.84;;;13.55;100.00
32237;BME280;18726;44.732;10.550;2024-03-06T05:47:37;100774.53;;;13.28;100.00
32237;BME280;18726;44.732;10.550;2024-03-06T05:50:41;100772.34;;;12.79;100.00
32237;BME280;18726;44.732;10.550;2024-03-06T05:53:45;100778.72;;;12.48;98.79
32237;BME280;18726;44.732;10.550;2024-03-06T05:56:50;100776.66;;;12.61;100.00
32237;BME280;18726;44.732;10.550;2024-03-06T05:59:54;100766.44;;;13.35;100.00
32237;BME280;18726;44.732;10.550;2024-03-06T06:02:58;100777.44;;;14.37;100.00
32237;BME280;18726;44.732;10.550;2024-03-06T06:06:02;100779.25;;;15.19;96.04
32237;BME280;18726;44.732;10.550;2024-03-06T06:09:06;100778.53;;;16.86;100.00
32237;BME280;18726;44.732;10.550;2024-03-06T06:12:10;100786.19;;;18.14;87.51
32237;BME280;18726;44.732;10.550;2024-03-06T06:15:14;100795.63;;;17.81;65.53
32237;BME280;18726;44.732;10.550;2024-03-06T06:18:18;100803.38;;;17.36;61.68
32237;BME280;18726;44.732;10.550;2024-03-06T06:21:21;100802.50;;;16.97;70.36
32237;BME280;18726;44.732;10.550;2024-03-06T06:24:25;100809.28;;;17.45;62.11
32237;BME280;18726;44.732;10.550;2024-03-06T06:27:28;100814.41;;;18.29;63.63
32237;BME280;18726;44.732;10.550;2024-03-06T06:30:32;100815.81;;;19.04;62.38
32237;BME280;18726;44.732;10.550;2024-03-06T06:33:35;100817.41;;;20.57;57.47
32237;BME280;18726;44.732;10.550;2024-03-06T06:36:45;100819.41;;;22.45;53.60
32237;BME280;18726;44.732;10.550;2024-03-06T06:39:48;100828.19;;;23.03;48.28
32237;BME280;18726;44.732;10.550;2024-03-06T06:42:52;100833.50;;;21.84;48.58
32237;BME280;18726;44.732;10.550;2024-03-06T06:45:56;100829.97;;;21.56;48.95
32237;BME280;18726;44.732;10.550;2024-03-06T06:48:59;100850.69;;;23.77;44.02
32237;BME280;18726;44.732;10.550;2024-03-06T06:52:03;100845.91;;;26.14;44.00
32237;BME280;18726;44.732;10.550;2024-03-06T06:55:07;100841.97;;;28.14;41.39
32237;BME280;18726;44.732;10.550;2024-03-06T06:58:15;100850.78;;;29.22;40.02
32237;BME280;18726;44.732;10.550;2024-03-06T07:01:19;100857.63;;;29.21;36.69
32237;BME280;18726;44.732;10.550;2024-03-06T07:04:23;100854.06;;;29.96;35.27
32237;BME280;18726;44.732;10.550;2024-03-06T07:07:28;100846.59;;;27.89;36.72
32237;BME280;18726;44.732;10.550;2024-03-06T07:10:31;100843.63;;;24.82;41.15
32237;BME280;18726;44.732;10.550;2024-03-06T07:13:34;100841.56;;;21.44;47.12
32237;BME280;18726;44.732;10.550;2024-03-06T07:16:42;100847.63;;;23.19;49.30
32237;BME280;18726;44.732;10.550;2024-03-06T07:19:46;100840.94;;;26.87;43.98
32237;BME280;18726;44.732;10.550;2024-03-06T07:22:50;100845.31;;;30.27;37.25
32237;BME280;18726;44.732;10.550;2024-03-06T07:25:54;100859.16;;;32.53;34.36
32237;BME280;18726;44.732;10.550;2024-03-06T07:28:58;100870.91;;;34.57;31.70
32237;BME280;18726;44.732;10.550;2024-03-06T07:32:02;100875.38;;;35.08;28.35
32237;BME280;18726;44.732;10.550;2024-03-06T07:35:08;100870.81;;;36.36;27.44
32237;BME280;18726;44.732;10.550;2024-03-06T07:38:12;100880.22;;;36.96;26.53
32237;BME280;18726;44.732;10.550;2024-03-06T07:41:16;100874.53;;;35.97;26.45
32237;BME280;18726;44.732;10.550;2024-03-06T07:44:20;100875.25;;;36.14;26.94
32237;BME280;18726;44.732;10.550;2024-03-06T07:47:24;100881.63;;;36.32;27.27
32237;BME280;18726;44.732;10.550;2024-03-06T07:50:28;100882.91;;;38.65;24.60
32237;BME280;18726;44.732;10.550;2024-03-06T07:53:31;100890.72;;;36.02;25.79
32237;BME280;18726;44.732;10.550;2024-03-06T07:56:35;100884.75;;;32.55;32.28
32237;BME280;18726;44.732;10.550;2024-03-06T07:59:38;100895.84;;;30.32;34.17
32237;BME280;18726;44.732;10.550;2024-03-06T08:02:43;100904.66;;;31.76;32.22
32237;BME280;18726;44.732;10.550;2024-03-06T08:05:46;100917.25;;;35.21;27.36
32237;BME280;18726;44.732;10.550;2024-03-06T08:08:50;100919.19;;;36.38;26.49
32237;BME280;18726;44.732;10.550;2024-03-06T08:11:55;100915.94;;;35.89;26.09
32237;BME280;18726;44.732;10.550;2024-03-06T08:14:59;100924.91;;;37.20;25.34
32237;BME280;18726;44.732;10.550;2024-03-06T08:18:03;100929.09;;;38.22;23.04
32237;BME280;18726;44.732;10.550;2024-03-06T08:21:06;100933.13;;;37.54;24.71
32237;BME280;18726;44.732;10.550;2024-03-06T08:24:10;100927.44;;;33.83;27.30
32237;BME280;18726;44.732;10.550;2024-03-06T08:27:14;100919.25;;;32.15;29.68
32237;BME280;18726;44.732;10.550;2024-03-06T08:30:17;100921.25;;;31.15;31.39
32237;BME280;18726;44.732;10.550;2024-03-06T08:33:20;100928.66;;;31.47;30.79
32237;BME280;18726;44.732;10.550;2024-03-06T08:36:25;100932.78;;;31.46;30.54
32237;BME280;18726;44.732;10.550;2024-03-06T08:39:29;100933.13;;;31.10;31.51
32237;BME280;18726;44.732;10.550;2024-03-06T08:42:33;100932.91;;;30.84;32.11
32237;BME280;18726;44.732;10.550;2024-03-06T08:45:37;100934.44;;;31.00;31.32
32237;BME280;18726;44.732;10.550;2024-03-06T08:48:41;100936.53;;;31.43;29.90
32237;BME280;18726;44.732;10.550;2024-03-06T08:51:45;100954.94;;;32.09;30.93
32237;BME280;18726;44.732;10.550;2024-03-06T08:54:49;100960.75;;;34.75;28.34
32237;BME280;18726;44.732;10.550;2024-03-06T08:57:52;100963.50;;;35.96;27.56
32237;BME280;18726;44.732;10.550;2024-03-06T09:00:56;100972.53;;;37.87;25.34
32237;BME280;18726;44.732;10.550;2024-03-06T09:03:59;100978.88;;;39.73;23.50
32237;BME280;18726;44.732;10.550;2024-03-06T09:07:03;100976.50;;;41.04;22.19
32237;BME280;18726;44.732;10.550;2024-03-06T09:10:08;100976.03;;;42.53;21.00
32237;BME280;18726;44.732;10.550;2024-03-06T09:13:12;100974.78;;;42.69;21.03
32237;BME280;18726;44.732;10.550;2024-03-06T09:16:16;100967.72;;;43.75;20.67
32237;BME280;18726;44.732;10.550;2024-03-06T09:19:21;100973.41;;;43.98;19.88
32237;BME280;18726;44.732;10.550;2024-03-06T09:22:26;100976.31;;;45.33;19.11
32237;BME280;18726;44.732;10.550;2024-03-06T09:25:29;100973.97;;;45.07;19.07
32237;BME280;18726;44.732;10.550;2024-03-06T09:28:33;100972.22;;;44.31;19.77
32237;BME280;18726;44.732;10.550;2024-03-06T09:31:37;100963.91;;;42.75;20.36
32237;BME280;18726;44.732;10.550;2024-03-06T09:34:41;100966.00;;;43.57;20.08
32237;BME280;18726;44.732;10.550;2024-03-06T09:37:45;100969.59;;;43.95;19.23
32237;BME280;18726;44.732;10.550;2024-03-06T09:40:50;100974.22;;;43.83;19.40
32237;BME280;18726;44.732;10.550;2024-03-06T09:43:54;100967.66;;;43.14;20.11
32237;BME280;18726;44.732;10.550;2024-03-06T09:47:02;100961.75;;;41.96;21.23
32237;BME280;18726;44.732;10.550;2024-03-06T09:50:09;100964.47;;;42.66;20.46
32237;BME280;18726;44.732;10.550;2024-03-06T09:53:14;100954.84;;;41.84;21.01
32237;BME280;18726;44.732;10.550;2024-03-06T09:56:19;100957.94;;;41.44;21.89
32237;BME280;18726;44.732;10.550;2024-03-06T09:59:23;100973.78;;;39.98;23.27
32237;BME280;18726;44.732;10.550;2024-03-06T10:02:54;100958.13;;;38.34;24.19
32237;BME280;18726;44.732;10.550;2024-03-06T10:06:00;100961.66;;;37.31;25.44
32237;BME280;18726;44.732;10.550;2024-03-06T10:09:04;100956.75;;;34.99;27.21
32237;BME280;18726;44.732;10.550;2024-03-06T10:12:12;100955.31;;;32.16;31.09
32237;BME280;18726;44.732;10.550;2024-03-06T10:15:16;100952.13;;;29.17;34.72
32237;BME280;18726;44.732;10.550;2024-03-06T10:18:20;100944.38;;;30.23;33.80
32237;BME280;18726;44.732;10.550;2024-03-06T10:21:31;100953.72;;;30.68;32.86
32237;BME280;18726;44.732;10.550;2024-03-06T10:24:38;100944.28;;;30.33;33.58
32237;BME280;18726;44.732;10.550;2024-03-06T10:27:42;100945.25;;;29.54;34.69
32237;BME280;18726;44.732;10.550;2024-03-06T10:30:46;100941.56;;;28.66;36.97
32237;BME280;18726;44.732;10.550;2024-03-06T10:33:50;100947.47;;;28.01;38.15
32237;BME280;18726;44.732;10.550;2024-03-06T10:36:55;100936.97;;;27.74;37.29
32237;BME280;18726;44.732;10.550;2024-03-06T10:40:02;100940.69;;;27.71;38.41
32237;BME280;18726;44.732;10.550;2024-03-06T10:43:10;100947.31;;;28.04;38.55
32237;BME280;18726;44.732;10.550;2024-03-06T10:46:15;100961.91;;;28.48;37.61
32237;BME280;18726;44.732;10.550;2024-03-06T10:49:22;100958.63;;;28.41;37.52
32237;BME280;18726;44.732;10.550;2024-03-06T10:52:27;100961.16;;;28.75;37.02
32237;BME280;18726;44.732;10.550;2024-03-06T10:55:32;100964.41;;;28.74;36.70
32237;BME280;18726;44.732;10.550;2024-03-06T10:58:38;100976.69;;;29.31;36.10
32237;BME280;18726;44.732;10.550;2024-03-06T11:01:44;100970.44;;;29.64;37.09
32237;BME280;18726;44.732;10.550;2024-03-06T11:04:48;100975.72;;;29.62;36.20
32237;BME280;18726;44.732;10.550;2024-03-06T11:07:52;100974.47;;;29.72;36.34
32237;BME280;18726;44.732;10.550;2024-03-06T11:11:19;100969.25;;;29.19;34.81
32237;BME280;18726;44.732;10.550;2024-03-06T11:14:24;100972.13;;;29.70;36.91
32237;BME280;18726;44.732;10.550;2024-03-06T11:17:27;100976.34;;;29.56;36.69
32237;BME280;18726;44.732;10.550;2024-03-06T11:20:33;100976.91;;;28.33;34.27
32237;BME280;18726;44.732;10.550;2024-03-06T11:27:19;100968.53;;;28.33;40.54
32237;BME280;18726;44.732;10.550;2024-03-06T11:30:23;100976.00;;;28.27;40.08
32237;BME280;18726;44.732;10.550;2024-03-06T11:33:46;100972.25;;;28.20;41.52
32237;BME280;18726;44.732;10.550;2024-03-06T11:36:53;100967.63;;;28.27;38.99
32237;BME280;18726;44.732;10.550;2024-03-06T11:40:00;100962.50;;;28.03;41.16
32237;BME280;18726;44.732;10.550;2024-03-06T11:43:24;100971.84;;;28.09;42.22
32237;BME280;18726;44.732;10.550;2024-03-06T11:46:45;100965.34;;;28.12;41.13
32237;BME280;18726;44.732;10.550;2024-03-06T11:49:49;100962.81;;;27.96;39.22
32237;BME280;18726;44.732;10.550;2024-03-06T11:52:53;100954.34;;;27.78;41.90
32237;BME280;18726;44.732;10.550;2024-03-06T11:55:59;100961.47;;;27.70;37.04
32237;BME280;18726;44.732;10.550;2024-03-06T11:59:02;100950.75;;;27.99;40.94
32237;BME280;18726;44.732;10.550;2024-03-06T12:02:06;100951.03;;;28.01;39.97
32237;BME280;18726;44.732;10.550;2024-03-06T12:05:10;100943.31;;;28.14;40.99
32237;BME280;18726;44.732;10.550;2024-03-06T12:08:14;100940.47;;;27.96;41.90
32237;BME280;18726;44.732;10.550;2024-03-06T12:11:18;100946.88;;;27.75;39.74
32237;BME280;18726;44.732;10.550;2024-03-06T12:14:22;100938.56;;;27.84;40.20
32237;BME280;18726;44.732;10.550;2024-03-06T12:17:26;100941.44;;;27.40;41.78
32237;BME280;18726;44.732;10.550;2024-03-06T12:20:31;100945.31;;;27.43;42.04
32237;BME280;18726;44.732;10.550;2024-03-06T12:23:35;100939.03;;;27.08;39.66
32237;BME280;18726;44.732;10.550;2024-03-06T12:26:39;100936.50;;;27.01;41.08
32237;BME280;18726;44.732;10.550;2024-03-06T12:29:42;100929.50;;;27.40;40.56
32237;BME280;18726;44.732;10.550;2024-03-06T12:32:59;100932.22;;;27.31;38.55
32237;BME280;18726;44.732;10.550;2024-03-06T12:36:04;100936.16;;;27.20;41.11
32237;BME280;18726;44.732;10.550;2024-03-06T12:39:09;100930.69;;;27.08;40.42
32237;BME280;18726;44.732;10.550;2024-03-06T12:42:21;100927.59;;;27.15;42.14
32237;BME280;18726;44.732;10.550;2024-03-06T12:45:24;100922.72;;;26.84;38.05
32237;BME280;18726;44.732;10.550;2024-03-06T12:48:28;100919.31;;;26.33;39.23
32237;BME280;18726;44.732;10.550;2024-03-06T12:51:33;100920.56;;;26.19;40.05
32237;BME280;18726;44.732;10.550;2024-03-06T12:54:36;100927.34;;;25.80;40.85
32237;BME280;18726;44.732;10.550;2024-03-06T12:57:40;100917.56;;;25.63;42.54
32237;BME280;18726;44.732;10.550;2024-03-06T13:00:45;100922.94;;;25.41;42.34
32237;BME280;18726;44.732;10.550;2024-03-06T13:03:49;100911.78;;;25.16;42.66
32237;BME280;18726;44.732;10.550;2024-03-06T13:06:52;100919.66;;;24.88;43.92
32237;BME280;18726;44.732;10.550;2024-03-06T13:09:56;100911.22;;;24.63;41.27
32237;BME280;18726;44.732;10.550;2024-03-06T13:13:00;100913.31;;;24.59;43.48
32237;BME280;18726;44.732;10.550;2024-03-06T13:16:04;100912.31;;;24.37;43.60
32237;BME280;18726;44.732;10.550;2024-03-06T13:19:07;100914.19;;;24.23;44.10
32237;BME280;18726;44.732;10.550;2024-03-06T13:22:11;100907.78;;;23.94;43.67
32237;BME280;18726;44.732;10.550;2024-03-06T13:25:15;100901.84;;;23.76;46.81
32237;BME280;18726;44.732;10.550;2024-03-06T13:28:19;100898.00;;;23.70;44.56
32237;BME280;18726;44.732;10.550;2024-03-06T13:31:24;100903.75;;;23.63;45.24
32237;BME280;18726;44.732;10.550;2024-03-06T13:34:28;100902.53;;;23.80;45.46
32237;BME280;18726;44.732;10.550;2024-03-06T13:37:33;100906.69;;;23.72;45.21
32237;BME280;18726;44.732;10.550;2024-03-06T13:40:37;100913.31;;;23.94;43.68
32237;BME280;18726;44.732;10.550;2024-03-06T13:43:43;100908.81;;;24.16;43.95
32237;BME280;18726;44.732;10.550;2024-03-06T13:46:47;100914.63;;;24.22;43.67
32237;BME280;18726;44.732;10.550;2024-03-06T13:49:50;100919.75;;;23.91;43.88
32237;BME280;18726;44.732;10.550;2024-03-06T13:52:54;100921.09;;;23.27;44.18
32237;BME280;18726;44.732;10.550;2024-03-06T13:55:57;100918.38;;;23.43;44.87
32237;BME280;18726;44.732;10.550;2024-03-06T13:59:01;100914.91;;;23.19;44.35
32237;BME280;18726;44.732;10.550;2024-03-06T14:02:06;100912.00;;;23.27;45.34
32237;BME280;18726;44.732;10.550;2024-03-06T14:05:10;100916.06;;;23.78;45.18
32237;BME280;18726;44.732;10.550;2024-03-06T14:08:14;100920.44;;;23.95;46.32
32237;BME280;18726;44.732;10.550;2024-03-06T14:11:19;100924.63;;;24.19;45.15
32237;BME280;18726;44.732;10.550;2024-03-06T14:14:23;100928.59;;;24.18;45.08
32237;BME280;18726;44.732;10.550;2024-03-06T14:17:27;100916.25;;;23.87;45.11
32237;BME280;18726;44.732;10.550;2024-03-06T14:20:30;100921.16;;;23.63;45.73
32237;BME280;18726;44.732;10.550;2024-03-06T14:23:34;100915.16;;;23.09;44.52
32237;BME280;18726;44.732;10.550;2024-03-06T14:26:38;100906.56;;;23.03;47.43
32237;BME280;18726;44.732;10.550;2024-03-06T14:29:42;100901.44;;;23.02;47.88
32237;BME280;18726;44.732;10.550;2024-03-06T14:32:45;100908.16;;;22.57;47.98
32237;BME280;18726;44.732;10.550;2024-03-06T14:35:49;100905.09;;;22.05;49.01
32237;BME280;18726;44.732;10.550;2024-03-06T14:38:53;100912.59;;;21.78;50.20
32237;BME280;18726;44.732;10.550;2024-03-06T14:41:57;100909.38;;;21.83;51.14
32237;BME280;18726;44.732;10.550;2024-03-06T14:45:01;100912.22;;;21.76;50.23
32237;BME280;18726;44.732;10.550;2024-03-06T14:48:08;100908.13;;;21.87;51.58
32237;BME280;18726;44.732;10.550;2024-03-06T14:51:12;100911.25;;;21.89;53.59
32237;BME280;18726;44.732;10.550;2024-03-06T14:54:16;100910.19;;;21.80;50.53
32237;BME280;18726;44.732;10.550;2024-03-06T14:57:20;100911.66;;;21.88;54.93
32237;BME280;18726;44.732;10.550;2024-03-06T15:00:25;100909.13;;;21.97;51.07
32237;BME280;18726;44.732;10.550;2024-03-06T15:03:29;100904.19;;;22.12;51.92
32237;BME280;18726;44.732;10.550;2024-03-06T15:06:34;100909.25;;;21.63;49.01
32237;BME280;18726;44.732;10.550;2024-03-06T15:09:37;100900.19;;;21.63;51.64
32237;BME280;18726;44.732;10.550;2024-03-06T15:12:42;100900.69;;;21.81;53.41
32237;BME280;18726;44.732;10.550;2024-03-06T15:15:47;100894.28;;;21.61;51.19
32237;BME280;18726;44.732;10.550;2024-03-06T15:18:50;100900.19;;;21.63;53.74
32237;BME280;18726;44.732;10.550;2024-03-06T15:21:56;100900.72;;;21.50;52.66
32237;BME280;18726;44.732;10.550;2024-03-06T15:25:03;100901.00;;;21.60;53.26
32237;BME280;18726;44.732;10.550;2024-03-06T15:28:07;100905.06;;;21.51;53.55
32237;BME280;18726;44.732;10.550;2024-03-06T15:31:13;100904.41;;;21.40;53.96
32237;BME280;18726;44.732;10.550;2024-03-06T15:34:17;100914.00;;;21.32;53.10
32237;BME280;18726;44.732;10.550;2024-03-06T15:37:22;100916.25;;;21.07;50.68
32237;BME280;18726;44.732;10.550;2024-03-06T15:40:28;100917.34;;;21.13;53.99
32237;BME280;18726;44.732;10.550;2024-03-06T15:43:32;100924.00;;;21.53;53.33
32237;BME280;18726;44.732;10.550;2024-03-06T15:46:37;100927.91;;;21.25;51.18
32237;BME280;18726;44.732;10.550;2024-03-06T15:49:41;100925.88;;;21.29;49.70